Aviation Digital Data Service (ADDS)

Output produced by TAFs form (0709 UTC 24 May 2015)
found at http://www.aviationweather.gov/adds/tafs/
 
KPOU 240535Z 2406/2506 00000KT P6SM SKC 
     FM241100 VRB03KT P6SM SKC 
     FM241400 23007KT P6SM SKC 
     FM241700 23010KT P6SM FEW250 
     FM250000 20005KT P6SM SCT250 
     FM250300 VRB03KT P6SM SCT120 BKN250